Terminal Aerodrome Forecast
Issued by NWS King Salmon, AK

Home | Current Version | Previous Version | Text Only | Print | Product List | Glossary On
Versions: 1 2 3 4 5 6 7 8 9 10 11 12 13 14 15 16 17 18
000
FTAK31 PANC 131905 AAA
TAFAKN
TAF AMD
PAKN 131905Z 1319/1418 21006KT P6SM -RA SCT008 OVC015
      TEMPO 1319/1321 BKN004
     FM132100 VRB06KT P6SM VCSH FEW015 SCT025 BKN050=

USA.gov is the U.S. government's official web portal to all federal, state and local government web resources and services.